sensor_id;sensor_type;location;lat;lon;timestamp;temperature;humidity
1786;DHT22;890;48.158;11.540;2022-11-03T00:00:57;11.30;84.90
1786;DHT22;890;48.158;11.540;2022-11-03T00:03:25;11.30;85.00
1786;DHT22;890;48.158;11.540;2022-11-03T00:05:51;11.30;85.00
1786;DHT22;890;48.158;11.540;2022-11-03T00:08:39;11.30;85.10
1786;DHT22;890;48.158;11.540;2022-11-03T00:13:32;11.20;85.10
1786;DHT22;890;48.158;11.540;2022-11-03T00:15:57;11.20;85.30
1786;DHT22;890;48.158;11.540;2022-11-03T00:18:23;11.20;85.40
1786;DHT22;890;48.158;11.540;2022-11-03T00:21:00;11.20;85.40
1786;DHT22;890;48.158;11.540;2022-11-03T00:23:28;11.00;85.50
1786;DHT22;890;48.158;11.540;2022-11-03T00:25:55;11.10;85.80
1786;DHT22;890;48.158;11.540;2022-11-03T00:28:20;11.10;86.00
1786;DHT22;890;48.158;11.540;2022-11-03T00:30:46;11.10;85.90
1786;DHT22;890;48.158;11.540;2022-11-03T00:33:13;11.20;86.00
1786;DHT22;890;48.158;11.540;2022-11-03T00:35:38;11.00;85.80
1786;DHT22;890;48.158;11.540;2022-11-03T00:38:04;11.10;86.10
1786;DHT22;890;48.158;11.540;2022-11-03T00:40:29;11.10;86.10
1786;DHT22;890;48.158;11.540;2022-11-03T00:42:55;11.10;86.20
1786;DHT22;890;48.158;11.540;2022-11-03T00:45:21;11.00;86.20
1786;DHT22;890;48.158;11.540;2022-11-03T00:47:46;11.00;86.40
1786;DHT22;890;48.158;11.540;2022-11-03T00:50:32;11.00;86.50
1786;DHT22;890;48.158;11.540;2022-11-03T00:52:58;10.90;86.50
1786;DHT22;890;48.158;11.540;2022-11-03T00:55:23;10.90;86.60
1786;DHT22;890;48.158;11.540;2022-11-03T00:57:52;10.90;86.70
1786;DHT22;890;48.158;11.540;2022-11-03T01:00:17;10.90;87.00
1786;DHT22;890;48.158;11.540;2022-11-03T01:02:43;10.80;87.10
1786;DHT22;890;48.158;11.540;2022-11-03T01:05:08;10.90;88.10
1786;DHT22;890;48.158;11.540;2022-11-03T01:07:53;10.80;87.40
1786;DHT22;890;48.158;11.540;2022-11-03T01:10:18;10.80;87.50
1786;DHT22;890;48.158;11.540;2022-11-03T01:12:44;10.80;87.70
1786;DHT22;890;48.158;11.540;2022-11-03T01:15:09;10.80;87.80
1786;DHT22;890;48.158;11.540;2022-11-03T01:17:35;10.80;88.00
1786;DHT22;890;48.158;11.540;2022-11-03T01:20:01;10.80;88.10
1786;DHT22;890;48.158;11.540;2022-11-03T01:22:26;10.80;88.10
1786;DHT22;890;48.158;11.540;2022-11-03T01:24:52;10.80;88.10
1786;DHT22;890;48.158;11.540;2022-11-03T01:27:19;11.00;88.20
1786;DHT22;890;48.158;11.540;2022-11-03T01:29:45;10.90;88.00
1786;DHT22;890;48.158;11.540;2022-11-03T01:32:11;11.00;88.10
1786;DHT22;890;48.158;11.540;2022-11-03T01:34:37;11.00;88.20
1786;DHT22;890;48.158;11.540;2022-11-03T01:37:03;11.00;88.20
1786;DHT22;890;48.158;11.540;2022-11-03T01:39:29;11.00;88.20
1786;DHT22;890;48.158;11.540;2022-11-03T01:41:54;11.10;88.20
1786;DHT22;890;48.158;11.540;2022-11-03T01:44:26;11.10;88.10
1786;DHT22;890;48.158;11.540;2022-11-03T01:47:05;10.90;87.90
1786;DHT22;890;48.158;11.540;2022-11-03T01:50:07;10.90;87.90
1786;DHT22;890;48.158;11.540;2022-11-03T01:52:44;10.80;87.70
1786;DHT22;890;48.158;11.540;2022-11-03T01:55:17;10.90;87.70
1786;DHT22;890;48.158;11.540;2022-11-03T02:00:13;10.90;87.70
1786;DHT22;890;48.158;11.540;2022-11-03T02:02:39;10.90;87.70
1786;DHT22;890;48.158;11.540;2022-11-03T02:05:06;10.80;87.80
1786;DHT22;890;48.158;11.540;2022-11-03T02:10:30;10.70;87.80
1786;DHT22;890;48.158;11.540;2022-11-03T02:12:56;10.70;87.80
1786;DHT22;890;48.158;11.540;2022-11-03T02:15:22;10.70;87.80
1786;DHT22;890;48.158;11.540;2022-11-03T02:17:50;10.70;87.80
1786;DHT22;890;48.158;11.540;2022-11-03T02:20:23;10.80;87.70
1786;DHT22;890;48.158;11.540;2022-11-03T02:28:02;10.50;88.20
1786;DHT22;890;48.158;11.540;2022-11-03T02:30:38;10.60;88.40
1786;DHT22;890;48.158;11.540;2022-11-03T02:33:23;10.50;88.40
1786;DHT22;890;48.158;11.540;2022-11-03T02:35:58;10.50;88.60
1786;DHT22;890;48.158;11.540;2022-11-03T02:38:26;10.50;88.70
1786;DHT22;890;48.158;11.540;2022-11-03T02:40:53;10.50;88.80
1786;DHT22;890;48.158;11.540;2022-11-03T02:43:21;10.50;88.80
1786;DHT22;890;48.158;11.540;2022-11-03T02:45:49;10.50;88.70
1786;DHT22;890;48.158;11.540;2022-11-03T02:48:17;10.50;88.50
1786;DHT22;890;48.158;11.540;2022-11-03T02:50:43;10.60;88.60
1786;DHT22;890;48.158;11.540;2022-11-03T02:53:11;10.50;88.60
1786;DHT22;890;48.158;11.540;2022-11-03T02:59:01;10.40;88.40
1786;DHT22;890;48.158;11.540;2022-11-03T03:01:45;10.20;88.30
1786;DHT22;890;48.158;11.540;2022-11-03T03:04:20;10.20;88.60
1786;DHT22;890;48.158;11.540;2022-11-03T03:06:58;10.20;88.60
1786;DHT22;890;48.158;11.540;2022-11-03T03:09:37;10.10;88.80
1786;DHT22;890;48.158;11.540;2022-11-03T03:12:05;10.10;89.00
1786;DHT22;890;48.158;11.540;2022-11-03T03:14:36;10.00;89.10
1786;DHT22;890;48.158;11.540;2022-11-03T03:22:35;9.90;90.90
1786;DHT22;890;48.158;11.540;2022-11-03T03:25:14;9.90;91.00
1786;DHT22;890;48.158;11.540;2022-11-03T03:27:44;9.90;91.00
1786;DHT22;890;48.158;11.540;2022-11-03T03:30:12;9.90;91.20
1786;DHT22;890;48.158;11.540;2022-11-03T03:32:41;10.00;90.80
1786;DHT22;890;48.158;11.540;2022-11-03T03:35:09;10.00;90.80
1786;DHT22;890;48.158;11.540;2022-11-03T03:37:39;10.00;90.80
1786;DHT22;890;48.158;11.540;2022-11-03T03:40:10;10.10;90.80
1786;DHT22;890;48.158;11.540;2022-11-03T03:42:37;10.10;90.80
1786;DHT22;890;48.158;11.540;2022-11-03T03:45:06;10.10;90.80
1786;DHT22;890;48.158;11.540;2022-11-03T03:47:33;10.10;90.70
1786;DHT22;890;48.158;11.540;2022-11-03T03:50:00;10.10;90.70
1786;DHT22;890;48.158;11.540;2022-11-03T03:52:26;10.20;90.70
1786;DHT22;890;48.158;11.540;2022-11-03T03:54:53;10.10;90.50
1786;DHT22;890;48.158;11.540;2022-11-03T03:57:22;10.10;90.50
1786;DHT22;890;48.158;11.540;2022-11-03T03:59:48;10.00;90.50
1786;DHT22;890;48.158;11.540;2022-11-03T04:02:14;10.00;90.70
1786;DHT22;890;48.158;11.540;2022-11-03T04:04:40;10.00;90.80
1786;DHT22;890;48.158;11.540;2022-11-03T04:07:06;10.00;90.80
1786;DHT22;890;48.158;11.540;2022-11-03T04:09:50;10.10;90.80
1786;DHT22;890;48.158;11.540;2022-11-03T04:12:15;10.10;90.80
1786;DHT22;890;48.158;11.540;2022-11-03T04:14:59;10.10;90.80
1786;DHT22;890;48.158;11.540;2022-11-03T04:17:45;10.10;90.90
1786;DHT22;890;48.158;11.540;2022-11-03T04:20:30;10.00;90.80
1786;DHT22;890;48.158;11.540;2022-11-03T04:23:15;10.10;90.90
1786;DHT22;890;48.158;11.540;2022-11-03T04:25:42;10.10;90.70
1786;DHT22;890;48.158;11.540;2022-11-03T04:28:13;10.10;90.70
1786;DHT22;890;48.158;11.540;2022-11-03T04:30:39;10.10;90.80
1786;DHT22;890;48.158;11.540;2022-11-03T04:33:16;10.10;90.80
1786;DHT22;890;48.158;11.540;2022-11-03T04:35:43;9.90;91.10
1786;DHT22;890;48.158;11.540;2022-11-03T04:38:29;10.00;90.70
1786;DHT22;890;48.158;11.540;2022-11-03T04:40:56;9.80;91.20
1786;DHT22;890;48.158;11.540;2022-11-03T04:43:30;10.00;90.90
1786;DHT22;890;48.158;11.540;2022-11-03T04:45:57;9.90;91.40
1786;DHT22;890;48.158;11.540;2022-11-03T04:48:24;9.90;91.50
1786;DHT22;890;48.158;11.540;2022-11-03T04:50:53;9.90;91.50
1786;DHT22;890;48.158;11.540;2022-11-03T04:53:20;9.90;91.40
1786;DHT22;890;48.158;11.540;2022-11-03T04:55:49;9.90;91.40
1786;DHT22;890;48.158;11.540;2022-11-03T04:58:27;9.90;91.40
1786;DHT22;890;48.158;11.540;2022-11-03T05:00:56;9.80;91.40
1786;DHT22;890;48.158;11.540;2022-11-03T05:03:31;9.80;91.40
1786;DHT22;890;48.158;11.540;2022-11-03T05:06:01;9.80;91.50
1786;DHT22;890;48.158;11.540;2022-11-03T05:08:33;9.80;91.50
1786;DHT22;890;48.158;11.540;2022-11-03T05:10:59;9.80;91.50
1786;DHT22;890;48.158;11.540;2022-11-03T05:13:26;11.20;91.60
1786;DHT22;890;48.158;11.540;2022-11-03T05:15:59;9.70;91.40
1786;DHT22;890;48.158;11.540;2022-11-03T05:18:35;9.70;91.40
1786;DHT22;890;48.158;11.540;2022-11-03T05:21:05;9.60;91.30
1786;DHT22;890;48.158;11.540;2022-11-03T05:23:37;9.70;91.20
1786;DHT22;890;48.158;11.540;2022-11-03T05:26:04;9.60;91.10
1786;DHT22;890;48.158;11.540;2022-11-03T05:28:35;9.60;91.10
1786;DHT22;890;48.158;11.540;2022-11-03T05:31:19;9.60;91.10
1786;DHT22;890;48.158;11.540;2022-11-03T05:33:45;9.50;91.00
1786;DHT22;890;48.158;11.540;2022-11-03T05:36:18;9.50;90.90
1786;DHT22;890;48.158;11.540;2022-11-03T05:38:44;9.40;90.90
1786;DHT22;890;48.158;11.540;2022-11-03T05:41:39;9.40;90.90
1786;DHT22;890;48.158;11.540;2022-11-03T05:44:35;9.30;91.10
1786;DHT22;890;48.158;11.540;2022-11-03T05:47:04;9.20;91.30
1786;DHT22;890;48.158;11.540;2022-11-03T05:49:33;9.30;91.40
1786;DHT22;890;48.158;11.540;2022-11-03T05:51:59;9.30;91.40
1786;DHT22;890;48.158;11.540;2022-11-03T05:54:28;9.30;91.50
1786;DHT22;890;48.158;11.540;2022-11-03T05:56:56;9.20;91.50
1786;DHT22;890;48.158;11.540;2022-11-03T05:59:24;9.30;91.50
1786;DHT22;890;48.158;11.540;2022-11-03T06:01:52;9.30;91.50
1786;DHT22;890;48.158;11.540;2022-11-03T06:06:55;9.20;91.70
1786;DHT22;890;48.158;11.540;2022-11-03T06:09:24;9.20;91.70
1786;DHT22;890;48.158;11.540;2022-11-03T06:11:53;9.20;91.70
1786;DHT22;890;48.158;11.540;2022-11-03T06:14:27;9.20;91.90
1786;DHT22;890;48.158;11.540;2022-11-03T06:16:59;9.10;92.00
1786;DHT22;890;48.158;11.540;2022-11-03T06:19:29;9.10;92.20
1786;DHT22;890;48.158;11.540;2022-11-03T06:21:58;9.20;92.20
1786;DHT22;890;48.158;11.540;2022-11-03T06:24:30;9.20;92.20
1786;DHT22;890;48.158;11.540;2022-11-03T06:26:56;9.20;92.10
1786;DHT22;890;48.158;11.540;2022-11-03T06:29:23;9.30;92.10
1786;DHT22;890;48.158;11.540;2022-11-03T06:31:49;9.30;92.00
1786;DHT22;890;48.158;11.540;2022-11-03T06:37:28;9.20;91.70
1786;DHT22;890;48.158;11.540;2022-11-03T06:42:53;9.20;92.00
1786;DHT22;890;48.158;11.540;2022-11-03T06:45:23;9.40;92.00
1786;DHT22;890;48.158;11.540;2022-11-03T06:47:49;9.50;92.00
1786;DHT22;890;48.158;11.540;2022-11-03T06:50:25;9.50;91.80
1786;DHT22;890;48.158;11.540;2022-11-03T06:52:52;9.40;91.60
1786;DHT22;890;48.158;11.540;2022-11-03T06:55:32;9.50;91.50
1786;DHT22;890;48.158;11.540;2022-11-03T06:58:02;9.30;91.20
1786;DHT22;890;48.158;11.540;2022-11-03T07:00:30;9.40;91.40
1786;DHT22;890;48.158;11.540;2022-11-03T07:05:25;9.30;91.50
1786;DHT22;890;48.158;11.540;2022-11-03T07:07:54;9.40;91.50
1786;DHT22;890;48.158;11.540;2022-11-03T07:10:25;9.40;91.40
1786;DHT22;890;48.158;11.540;2022-11-03T07:12:52;9.40;91.30
1786;DHT22;890;48.158;11.540;2022-11-03T07:15:35;9.40;91.00
1786;DHT22;890;48.158;11.540;2022-11-03T07:18:12;9.30;90.80
1786;DHT22;890;48.158;11.540;2022-11-03T07:20:40;9.40;90.90
1786;DHT22;890;48.158;11.540;2022-11-03T07:23:12;9.40;91.00
1786;DHT22;890;48.158;11.540;2022-11-03T07:25:40;9.40;90.90
1786;DHT22;890;48.158;11.540;2022-11-03T07:28:07;9.50;91.00
1786;DHT22;890;48.158;11.540;2022-11-03T07:30:35;9.60;91.10
1786;DHT22;890;48.158;11.540;2022-11-03T07:33:22;9.60;91.00
1786;DHT22;890;48.158;11.540;2022-11-03T07:35:49;9.50;90.90
1786;DHT22;890;48.158;11.540;2022-11-03T07:38:20;9.70;91.00
1786;DHT22;890;48.158;11.540;2022-11-03T07:40:46;9.80;90.80
1786;DHT22;890;48.158;11.540;2022-11-03T07:43:22;9.80;90.70
1786;DHT22;890;48.158;11.540;2022-11-03T07:45:51;9.70;90.60
1786;DHT22;890;48.158;11.540;2022-11-03T07:50:55;9.90;90.70
1786;DHT22;890;48.158;11.540;2022-11-03T07:53:33;9.90;90.70
1786;DHT22;890;48.158;11.540;2022-11-03T07:56:01;9.90;90.40
1786;DHT22;890;48.158;11.540;2022-11-03T07:58:36;10.00;89.80
1786;DHT22;890;48.158;11.540;2022-11-03T08:01:35;9.90;90.20
1786;DHT22;890;48.158;11.540;2022-11-03T08:04:06;10.00;89.30
1786;DHT22;890;48.158;11.540;2022-11-03T08:06:32;10.10;89.10
1786;DHT22;890;48.158;11.540;2022-11-03T08:08:58;10.30;89.30
1786;DHT22;890;48.158;11.540;2022-11-03T08:11:24;10.40;89.30
1786;DHT22;890;48.158;11.540;2022-11-03T08:13:50;10.50;89.10
1786;DHT22;890;48.158;11.540;2022-11-03T08:16:17;10.50;89.00
1786;DHT22;890;48.158;11.540;2022-11-03T08:18:43;10.60;89.00
1786;DHT22;890;48.158;11.540;2022-11-03T08:21:09;10.60;88.70
1786;DHT22;890;48.158;11.540;2022-11-03T08:23:35;10.80;88.70
1786;DHT22;890;48.158;11.540;2022-11-03T08:26:01;11.00;88.90
1786;DHT22;890;48.158;11.540;2022-11-03T08:28:26;11.20;90.20
1786;DHT22;890;48.158;11.540;2022-11-03T08:30:52;11.60;90.10
1786;DHT22;890;48.158;11.540;2022-11-03T08:33:18;11.90;89.70
1786;DHT22;890;48.158;11.540;2022-11-03T08:35:43;12.10;88.70
1786;DHT22;890;48.158;11.540;2022-11-03T08:38:09;12.40;89.50
1786;DHT22;890;48.158;11.540;2022-11-03T08:40:35;12.90;92.50
1786;DHT22;890;48.158;11.540;2022-11-03T08:43:00;13.80;95.80
1786;DHT22;890;48.158;11.540;2022-11-03T08:45:28;14.80;97.90
1786;DHT22;890;48.158;11.540;2022-11-03T08:47:54;15.70;95.30
1786;DHT22;890;48.158;11.540;2022-11-03T08:50:20;16.40;93.40
1786;DHT22;890;48.158;11.540;2022-11-03T08:52:46;17.10;95.10
1786;DHT22;890;48.158;11.540;2022-11-03T08:55:12;17.80;91.90
1786;DHT22;890;48.158;11.540;2022-11-03T08:57:37;18.10;86.00
1786;DHT22;890;48.158;11.540;2022-11-03T09:00:04;17.80;80.40
1786;DHT22;890;48.158;11.540;2022-11-03T09:02:30;17.50;79.60
1786;DHT22;890;48.158;11.540;2022-11-03T09:04:56;17.50;80.90
1786;DHT22;890;48.158;11.540;2022-11-03T09:07:22;17.50;80.50
1786;DHT22;890;48.158;11.540;2022-11-03T09:09:47;17.60;78.00
1786;DHT22;890;48.158;11.540;2022-11-03T09:12:13;17.80;78.30
1786;DHT22;890;48.158;11.540;2022-11-03T09:14:39;17.90;75.30
1786;DHT22;890;48.158;11.540;2022-11-03T09:17:04;17.80;72.10
1786;DHT22;890;48.158;11.540;2022-11-03T09:19:30;17.80;69.90
1786;DHT22;890;48.158;11.540;2022-11-03T09:21:55;17.80;67.70
1786;DHT22;890;48.158;11.540;2022-11-03T09:24:21;17.80;68.00
1786;DHT22;890;48.158;11.540;2022-11-03T09:26:47;17.90;68.30
1786;DHT22;890;48.158;11.540;2022-11-03T09:29:12;18.00;69.00
1786;DHT22;890;48.158;11.540;2022-11-03T09:31:38;18.50;70.50
1786;DHT22;890;48.158;11.540;2022-11-03T09:34:03;19.30;75.50
1786;DHT22;890;48.158;11.540;2022-11-03T09:36:29;20.40;79.80
1786;DHT22;890;48.158;11.540;2022-11-03T09:38:55;21.50;78.30
1786;DHT22;890;48.158;11.540;2022-11-03T09:41:20;22.40;77.50
1786;DHT22;890;48.158;11.540;2022-11-03T09:43:47;23.40;79.00
1786;DHT22;890;48.158;11.540;2022-11-03T09:46:13;23.70;75.80
1786;DHT22;890;48.158;11.540;2022-11-03T09:48:40;24.20;74.40
1786;DHT22;890;48.158;11.540;2022-11-03T09:51:15;24.80;72.10
1786;DHT22;890;48.158;11.540;2022-11-03T09:53:42;25.30;65.20
1786;DHT22;890;48.158;11.540;2022-11-03T09:56:09;25.80;60.40
1786;DHT22;890;48.158;11.540;2022-11-03T09:58:34;25.60;55.20
1786;DHT22;890;48.158;11.540;2022-11-03T10:01:00;25.90;54.40
1786;DHT22;890;48.158;11.540;2022-11-03T10:03:26;26.00;54.20
1786;DHT22;890;48.158;11.540;2022-11-03T10:05:52;25.40;53.90
1786;DHT22;890;48.158;11.540;2022-11-03T10:08:31;25.20;55.00
1786;DHT22;890;48.158;11.540;2022-11-03T10:10:59;25.30;53.70
1786;DHT22;890;48.158;11.540;2022-11-03T10:13:31;26.00;52.30
1786;DHT22;890;48.158;11.540;2022-11-03T10:15:59;26.00;48.80
1786;DHT22;890;48.158;11.540;2022-11-03T10:18:26;25.70;48.50
1786;DHT22;890;48.158;11.540;2022-11-03T10:20:52;25.40;48.80
1786;DHT22;890;48.158;11.540;2022-11-03T10:23:17;25.30;49.50
1786;DHT22;890;48.158;11.540;2022-11-03T10:25:44;25.00;49.70
1786;DHT22;890;48.158;11.540;2022-11-03T10:28:23;24.60;49.00
1786;DHT22;890;48.158;11.540;2022-11-03T10:33:25;23.40;48.60
1786;DHT22;890;48.158;11.540;2022-11-03T10:35:52;22.80;49.50
1786;DHT22;890;48.158;11.540;2022-11-03T10:38:28;22.30;50.80
1786;DHT22;890;48.158;11.540;2022-11-03T10:41:20;22.00;50.80
1786;DHT22;890;48.158;11.540;2022-11-03T10:46:39;21.20;50.90
1786;DHT22;890;48.158;11.540;2022-11-03T10:49:11;20.80;51.20
1786;DHT22;890;48.158;11.540;2022-11-03T10:51:38;20.40;52.30
1786;DHT22;890;48.158;11.540;2022-11-03T10:54:09;20.00;52.20
1786;DHT22;890;48.158;11.540;2022-11-03T10:56:36;19.70;52.80
1786;DHT22;890;48.158;11.540;2022-11-03T10:59:01;19.50;53.60
1786;DHT22;890;48.158;11.540;2022-11-03T11:01:27;19.20;53.90
1786;DHT22;890;48.158;11.540;2022-11-03T11:03:53;19.00;54.80
1786;DHT22;890;48.158;11.540;2022-11-03T11:06:24;19.00;55.20
1786;DHT22;890;48.158;11.540;2022-11-03T11:08:58;18.90;54.60
1786;DHT22;890;48.158;11.540;2022-11-03T11:11:25;19.00;54.20
1786;DHT22;890;48.158;11.540;2022-11-03T11:16:54;19.00;54.90
1786;DHT22;890;48.158;11.540;2022-11-03T11:19:20;19.40;57.10
1786;DHT22;890;48.158;11.540;2022-11-03T11:29:59;20.20;56.80
1786;DHT22;890;48.158;11.540;2022-11-03T11:35:21;20.80;56.80
1786;DHT22;890;48.158;11.540;2022-11-03T11:41:05;21.40;54.90
1786;DHT22;890;48.158;11.540;2022-11-03T11:43:31;21.60;55.30
1786;DHT22;890;48.158;11.540;2022-11-03T11:51:22;21.80;54.90
1786;DHT22;890;48.158;11.540;2022-11-03T11:53:49;21.60;55.10
1786;DHT22;890;48.158;11.540;2022-11-03T11:56:16;21.40;54.80
1786;DHT22;890;48.158;11.540;2022-11-03T11:58:48;21.00;54.30
1786;DHT22;890;48.158;11.540;2022-11-03T12:04:27;20.00;54.80
1786;DHT22;890;48.158;11.540;2022-11-03T12:06:45;19.80;54.80
1786;DHT22;890;48.158;11.540;2022-11-03T12:14:35;19.20;57.60
1786;DHT22;890;48.158;11.540;2022-11-03T12:19:52;18.90;57.70
1786;DHT22;890;48.158;11.540;2022-11-03T12:29:44;18.50;57.60
1786;DHT22;890;48.158;11.540;2022-11-03T12:32:09;18.30;57.70
1786;DHT22;890;48.158;11.540;2022-11-03T12:34:35;18.00;58.00
1786;DHT22;890;48.158;11.540;2022-11-03T12:37:01;17.90;58.30
1786;DHT22;890;48.158;11.540;2022-11-03T12:39:26;17.70;58.50
1786;DHT22;890;48.158;11.540;2022-11-03T12:41:52;17.50;58.70
1786;DHT22;890;48.158;11.540;2022-11-03T12:44:17;17.40;59.10
1786;DHT22;890;48.158;11.540;2022-11-03T12:46:43;17.30;59.50
1786;DHT22;890;48.158;11.540;2022-11-03T12:49:08;17.30;59.80
1786;DHT22;890;48.158;11.540;2022-11-03T12:51:34;17.20;60.50
1786;DHT22;890;48.158;11.540;2022-11-03T12:53:59;17.10;61.20
1786;DHT22;890;48.158;11.540;2022-11-03T12:56:25;17.10;61.60
1786;DHT22;890;48.158;11.540;2022-11-03T12:58:51;17.10;61.80
1786;DHT22;890;48.158;11.540;2022-11-03T13:01:16;17.10;62.30
1786;DHT22;890;48.158;11.540;2022-11-03T13:03:43;17.20;62.30
1786;DHT22;890;48.158;11.540;2022-11-03T13:06:08;17.30;62.30
1786;DHT22;890;48.158;11.540;2022-11-03T13:08:35;17.20;62.20
1786;DHT22;890;48.158;11.540;2022-11-03T13:11:00;17.20;62.30
1786;DHT22;890;48.158;11.540;2022-11-03T13:13:26;17.30;62.50
1786;DHT22;890;48.158;11.540;2022-11-03T13:15:52;17.30;62.50
1786;DHT22;890;48.158;11.540;2022-11-03T13:18:21;17.40;62.30
1786;DHT22;890;48.158;11.540;2022-11-03T13:20:47;17.30;62.10
1786;DHT22;890;48.158;11.540;2022-11-03T13:23:12;17.20;62.20
1786;DHT22;890;48.158;11.540;2022-11-03T13:25:38;17.00;63.60
1786;DHT22;890;48.158;11.540;2022-11-03T13:28:04;17.00;63.40
1786;DHT22;890;48.158;11.540;2022-11-03T13:30:30;17.00;63.50
1786;DHT22;890;48.158;11.540;2022-11-03T13:32:57;16.90;63.40
1786;DHT22;890;48.158;11.540;2022-11-03T13:35:23;16.90;64.30
1786;DHT22;890;48.158;11.540;2022-11-03T13:37:49;16.80;63.70
1786;DHT22;890;48.158;11.540;2022-11-03T13:40:15;16.70;64.00
1786;DHT22;890;48.158;11.540;2022-11-03T13:42:41;16.70;64.50
1786;DHT22;890;48.158;11.540;2022-11-03T13:45:07;16.40;64.80
1786;DHT22;890;48.158;11.540;2022-11-03T13:47:34;16.40;66.10
1786;DHT22;890;48.158;11.540;2022-11-03T13:50:00;16.40;65.90
1786;DHT22;890;48.158;11.540;2022-11-03T13:52:26;16.40;66.40
1786;DHT22;890;48.158;11.540;2022-11-03T13:54:52;16.30;66.60
1786;DHT22;890;48.158;11.540;2022-11-03T13:57:18;16.20;67.00
1786;DHT22;890;48.158;11.540;2022-11-03T13:59:44;16.20;67.60
1786;DHT22;890;48.158;11.540;2022-11-03T14:02:10;16.10;67.80
1786;DHT22;890;48.158;11.540;2022-11-03T14:04:38;15.90;67.90
1786;DHT22;890;48.158;11.540;2022-11-03T14:07:04;15.90;68.40
1786;DHT22;890;48.158;11.540;2022-11-03T14:09:30;15.80;68.70
1786;DHT22;890;48.158;11.540;2022-11-03T14:11:56;15.70;68.90
1786;DHT22;890;48.158;11.540;2022-11-03T14:14:40;15.60;69.40
1786;DHT22;890;48.158;11.540;2022-11-03T14:17:06;15.50;69.60
1786;DHT22;890;48.158;11.540;2022-11-03T14:19:32;15.50;69.80
1786;DHT22;890;48.158;11.540;2022-11-03T14:21:57;15.40;70.00
1786;DHT22;890;48.158;11.540;2022-11-03T14:24:23;15.40;70.20
1786;DHT22;890;48.158;11.540;2022-11-03T14:26:49;15.40;70.10
1786;DHT22;890;48.158;11.540;2022-11-03T14:29:14;15.40;70.20
1786;DHT22;890;48.158;11.540;2022-11-03T14:31:40;15.40;70.40
1786;DHT22;890;48.158;11.540;2022-11-03T14:34:06;15.40;70.50
1786;DHT22;890;48.158;11.540;2022-11-03T14:36:31;15.40;70.70
1786;DHT22;890;48.158;11.540;2022-11-03T14:38:57;15.40;71.00
1786;DHT22;890;48.158;11.540;2022-11-03T14:41:22;15.20;71.40
1786;DHT22;890;48.158;11.540;2022-11-03T14:44:07;15.00;71.90
1786;DHT22;890;48.158;11.540;2022-11-03T14:46:32;14.90;72.40
1786;DHT22;890;48.158;11.540;2022-11-03T14:48:58;14.80;72.80
1786;DHT22;890;48.158;11.540;2022-11-03T14:51:26;14.70;73.10
1786;DHT22;890;48.158;11.540;2022-11-03T14:53:51;14.70;73.90
1786;DHT22;890;48.158;11.540;2022-11-03T14:56:17;14.60;74.20
1786;DHT22;890;48.158;11.540;2022-11-03T14:58:43;14.60;74.30
1786;DHT22;890;48.158;11.540;2022-11-03T15:01:10;14.60;74.60
1786;DHT22;890;48.158;11.540;2022-11-03T15:03:35;14.70;74.80
1786;DHT22;890;48.158;11.540;2022-11-03T15:06:01;14.60;74.80
1786;DHT22;890;48.158;11.540;2022-11-03T15:08:26;14.50;75.10
1786;DHT22;890;48.158;11.540;2022-11-03T15:10:54;14.50;75.60
1786;DHT22;890;48.158;11.540;2022-11-03T15:13:19;14.50;76.00
1786;DHT22;890;48.158;11.540;2022-11-03T15:15:45;14.50;77.10
1786;DHT22;890;48.158;11.540;2022-11-03T15:18:11;14.40;76.50
1786;DHT22;890;48.158;11.540;2022-11-03T15:20:36;14.40;77.00
1786;DHT22;890;48.158;11.540;2022-11-03T15:23:05;14.30;77.20
1786;DHT22;890;48.158;11.540;2022-11-03T15:25:31;14.30;77.60
1786;DHT22;890;48.158;11.540;2022-11-03T15:27:57;14.20;78.20
1786;DHT22;890;48.158;11.540;2022-11-03T15:30:23;14.20;78.60
1786;DHT22;890;48.158;11.540;2022-11-03T15:32:48;14.30;79.00
1786;DHT22;890;48.158;11.540;2022-11-03T15:35:14;14.20;79.10
1786;DHT22;890;48.158;11.540;2022-11-03T15:37:40;14.30;79.50
1786;DHT22;890;48.158;11.540;2022-11-03T15:40:07;14.30;79.50
1786;DHT22;890;48.158;11.540;2022-11-03T15:42:33;14.20;80.40
1786;DHT22;890;48.158;11.540;2022-11-03T15:44:59;14.20;80.10
1786;DHT22;890;48.158;11.540;2022-11-03T15:47:25;14.20;80.40
1786;DHT22;890;48.158;11.540;2022-11-03T15:49:50;14.10;80.50
1786;DHT22;890;48.158;11.540;2022-11-03T15:52:16;14.10;80.90
1786;DHT22;890;48.158;11.540;2022-11-03T15:54:42;14.10;81.10
1786;DHT22;890;48.158;11.540;2022-11-03T15:57:07;14.10;81.30
1786;DHT22;890;48.158;11.540;2022-11-03T15:59:33;14.00;81.40
1786;DHT22;890;48.158;11.540;2022-11-03T16:01:58;13.90;81.80
1786;DHT22;890;48.158;11.540;2022-11-03T16:04:24;13.80;82.20
1786;DHT22;890;48.158;11.540;2022-11-03T16:06:49;13.70;82.50
1786;DHT22;890;48.158;11.540;2022-11-03T16:09:15;13.60;82.90
1786;DHT22;890;48.158;11.540;2022-11-03T16:11:41;13.50;83.50
1786;DHT22;890;48.158;11.540;2022-11-03T16:14:06;13.50;84.00
1786;DHT22;890;48.158;11.540;2022-11-03T16:16:32;13.40;84.10
1786;DHT22;890;48.158;11.540;2022-11-03T16:18:58;13.40;84.50
1786;DHT22;890;48.158;11.540;2022-11-03T16:21:23;13.50;84.80
1786;DHT22;890;48.158;11.540;2022-11-03T16:23:49;13.50;84.80
1786;DHT22;890;48.158;11.540;2022-11-03T16:26:14;13.40;84.80
1786;DHT22;890;48.158;11.540;2022-11-03T16:31:47;13.20;85.60
1786;DHT22;890;48.158;11.540;2022-11-03T16:34:14;13.30;85.70
1786;DHT22;890;48.158;11.540;2022-11-03T16:36:40;13.30;86.70
1786;DHT22;890;48.158;11.540;2022-11-03T16:39:06;13.20;86.30
1786;DHT22;890;48.158;11.540;2022-11-03T16:41:31;13.20;86.50
1786;DHT22;890;48.158;11.540;2022-11-03T16:43:57;13.10;86.80
1786;DHT22;890;48.158;11.540;2022-11-03T16:46:22;13.20;87.20
1786;DHT22;890;48.158;11.540;2022-11-03T16:48:48;13.30;87.30
1786;DHT22;890;48.158;11.540;2022-11-03T16:51:13;13.30;87.20
1786;DHT22;890;48.158;11.540;2022-11-03T16:53:39;13.30;87.30
1786;DHT22;890;48.158;11.540;2022-11-03T16:56:05;13.20;87.40
1786;DHT22;890;48.158;11.540;2022-11-03T16:58:30;13.10;87.60
1786;DHT22;890;48.158;11.540;2022-11-03T17:00:56;13.10;87.90
1786;DHT22;890;48.158;11.540;2022-11-03T17:03:22;13.10;88.20
1786;DHT22;890;48.158;11.540;2022-11-03T17:05:47;13.10;88.60
1786;DHT22;890;48.158;11.540;2022-11-03T17:08:13;13.00;89.50
1786;DHT22;890;48.158;11.540;2022-11-03T17:10:38;12.90;89.10
1786;DHT22;890;48.158;11.540;2022-11-03T17:13:04;13.00;89.70
1786;DHT22;890;48.158;11.540;2022-11-03T17:15:30;13.00;89.90
1786;DHT22;890;48.158;11.540;2022-11-03T17:17:55;13.00;90.00
1786;DHT22;890;48.158;11.540;2022-11-03T17:20:21;13.00;90.00
1786;DHT22;890;48.158;11.540;2022-11-03T17:22:47;12.90;90.00
1786;DHT22;890;48.158;11.540;2022-11-03T17:25:12;12.90;90.10
1786;DHT22;890;48.158;11.540;2022-11-03T17:27:50;12.90;90.30
1786;DHT22;890;48.158;11.540;2022-11-03T17:30:21;12.70;90.50
1786;DHT22;890;48.158;11.540;2022-11-03T17:32:48;12.80;90.70
1786;DHT22;890;48.158;11.540;2022-11-03T17:35:37;12.80;90.90
1786;DHT22;890;48.158;11.540;2022-11-03T17:38:06;12.70;91.00